createdAt,value
2018-02-02T00:00:12.954Z,0.00
2018-02-02T00:01:12.957Z,0.00
2018-02-02T00:02:13.921Z,0.00
2018-02-02T00:03:12.961Z,0.00
2018-02-02T00:04:12.950Z,0.00
2018-02-02T00:05:12.956Z,0.00
2018-02-02T00:06:12.945Z,0.00
2018-02-02T00:07:12.941Z,0.00
2018-02-02T00:08:12.964Z,0.00
2018-02-02T00:09:12.961Z,0.00
2018-02-02T00:10:12.937Z,0.00
2018-02-02T00:11:12.944Z,0.00
2018-02-02T00:12:12.933Z,0.00
2018-02-02T00:13:12.925Z,0.00
2018-02-02T00:14:12.918Z,0.00
2018-02-02T00:15:12.926Z,0.00
2018-02-02T00:16:12.996Z,0.00
2018-02-02T00:17:12.913Z,0.00
2018-02-02T00:18:12.922Z,0.00
2018-02-02T00:19:12.918Z,0.00
2018-02-02T00:20:12.912Z,0.00
2018-02-02T00:21:12.917Z,0.00
2018-02-02T00:22:12.912Z,0.00
2018-02-02T00:23:12.915Z,0.00
2018-02-02T00:24:12.901Z,0.00
2018-02-02T00:25:12.906Z,0.00
2018-02-02T00:26:13.422Z,0.00
2018-02-02T00:27:12.905Z,0.00
2018-02-02T00:28:12.903Z,0.00
2018-02-02T00:29:13.422Z,0.00
2018-02-02T00:30:12.900Z,0.00
2018-02-02T00:31:12.904Z,0.00
2018-02-02T00:32:12.900Z,0.00
2018-02-02T00:33:12.882Z,0.00
2018-02-02T00:34:12.890Z,0.00
2018-02-02T00:35:12.887Z,0.00
2018-02-02T00:36:12.884Z,0.00
2018-02-02T00:37:12.886Z,0.00
2018-02-02T00:38:12.930Z,0.00
2018-02-02T00:39:12.900Z,0.00
2018-02-02T00:40:12.879Z,0.00
2018-02-02T00:41:12.881Z,0.00
2018-02-02T00:42:12.872Z,0.00
2018-02-02T00:43:12.876Z,0.00
2018-02-02T00:44:12.872Z,0.00
2018-02-02T00:45:12.858Z,0.00
2018-02-02T00:46:12.872Z,0.00
2018-02-02T00:47:12.866Z,0.00
2018-02-02T00:48:12.870Z,0.00
2018-02-02T00:49:12.864Z,0.00
2018-02-02T00:50:12.859Z,0.00
2018-02-02T00:51:12.848Z,0.00
2018-02-02T00:52:12.852Z,0.00
2018-02-02T00:53:12.855Z,0.00
2018-02-02T00:54:12.843Z,0.00
2018-02-02T00:55:12.851Z,0.00
2018-02-02T00:56:12.848Z,0.00
2018-02-02T00:57:12.849Z,0.00
2018-02-02T00:58:12.836Z,0.00
2018-02-02T00:59:12.846Z,0.00
2018-02-02T01:00:13.426Z,0.00
2018-02-02T01:01:12.838Z,0.00
2018-02-02T01:02:12.832Z,0.00
2018-02-02T01:03:12.834Z,0.00
2018-02-02T01:04:12.828Z,0.00
2018-02-02T01:05:12.838Z,0.00
2018-02-02T01:06:12.824Z,0.00
2018-02-02T01:07:12.830Z,0.00
2018-02-02T01:08:12.826Z,0.00
2018-02-02T01:09:12.829Z,0.00
2018-02-02T01:10:12.833Z,0.00
2018-02-02T01:11:12.822Z,0.00
2018-02-02T01:12:12.817Z,0.00
2018-02-02T01:13:12.827Z,0.00
2018-02-02T01:14:12.797Z,0.00
2018-02-02T01:15:12.811Z,0.00
2018-02-02T01:16:12.817Z,0.00
2018-02-02T01:17:12.806Z,0.00
2018-02-02T01:18:12.802Z,0.00
2018-02-02T01:19:12.802Z,0.00
2018-02-02T01:20:12.793Z,0.00
2018-02-02T01:21:12.797Z,0.00
2018-02-02T01:22:12.792Z,0.00
2018-02-02T01:23:12.800Z,0.00
2018-02-02T01:24:12.799Z,0.00
2018-02-02T01:25:12.785Z,0.00
2018-02-02T01:26:12.802Z,0.00
2018-02-02T01:27:12.784Z,0.00
2018-02-02T01:28:12.781Z,0.00
2018-02-02T01:29:12.793Z,0.00
2018-02-02T01:30:12.775Z,0.00
2018-02-02T01:31:12.792Z,0.00
2018-02-02T01:32:12.779Z,0.00
2018-02-02T01:33:12.771Z,0.00
2018-02-02T01:34:12.770Z,0.00
2018-02-02T01:35:12.778Z,0.00
2018-02-02T01:36:12.775Z,0.00
2018-02-02T01:37:12.756Z,0.00
2018-02-02T01:38:12.760Z,0.00
2018-02-02T01:39:12.761Z,0.00
2018-02-02T01:40:12.761Z,0.00
2018-02-02T01:41:12.758Z,0.00
2018-02-02T01:42:12.753Z,0.00
2018-02-02T01:43:12.758Z,0.00
2018-02-02T01:44:13.456Z,0.00
2018-02-02T01:45:12.740Z,0.00
2018-02-02T01:46:12.764Z,0.00
2018-02-02T01:47:12.746Z,0.00
2018-02-02T01:48:12.748Z,0.00
2018-02-02T01:49:12.744Z,0.00
2018-02-02T01:50:12.741Z,0.00
2018-02-02T01:51:12.743Z,0.00
2018-02-02T01:52:12.731Z,0.00
2018-02-02T01:53:12.721Z,0.00
2018-02-02T01:54:12.737Z,0.00
2018-02-02T01:55:12.736Z,0.00
2018-02-02T01:56:12.727Z,0.00
2018-02-02T01:57:12.856Z,0.00
2018-02-02T01:58:12.720Z,0.00
2018-02-02T01:59:12.721Z,0.00
2018-02-02T02:00:12.738Z,0.00
2018-02-02T02:01:12.715Z,0.00
2018-02-02T02:02:12.722Z,0.00
2018-02-02T02:03:12.737Z,0.00
2018-02-02T02:04:12.712Z,0.00
2018-02-02T02:05:12.717Z,0.00
2018-02-02T02:06:12.715Z,0.00
2018-02-02T02:07:12.701Z,0.00
2018-02-02T02:08:12.708Z,0.00
2018-02-02T02:09:12.705Z,0.00
2018-02-02T02:10:13.438Z,0.00
2018-02-02T02:11:12.699Z,0.00
2018-02-02T02:12:12.701Z,0.00
2018-02-02T02:13:12.690Z,0.00
2018-02-02T02:14:12.696Z,0.00
2018-02-02T02:15:12.682Z,0.00
2018-02-02T02:16:12.688Z,0.00
2018-02-02T02:17:12.693Z,0.00
2018-02-02T02:18:12.684Z,0.00
2018-02-02T02:19:13.438Z,0.00
2018-02-02T02:20:12.681Z,0.00
2018-02-02T02:21:12.675Z,0.00
2018-02-02T02:22:12.675Z,0.00
2018-02-02T02:23:13.439Z,0.00
2018-02-02T02:24:12.675Z,0.00
2018-02-02T02:25:12.670Z,0.00
2018-02-02T02:26:12.669Z,0.00
2018-02-02T02:27:12.673Z,0.00
2018-02-02T02:28:12.666Z,0.00
2018-02-02T02:29:12.663Z,0.00
2018-02-02T02:30:12.684Z,0.00
2018-02-02T02:31:12.711Z,0.00
2018-02-02T02:32:12.664Z,0.00
2018-02-02T02:33:12.659Z,0.00
2018-02-02T02:34:12.651Z,0.00
2018-02-02T02:35:12.652Z,0.00
2018-02-02T02:36:12.647Z,0.00
2018-02-02T02:37:12.649Z,0.00
2018-02-02T02:38:12.654Z,0.00
2018-02-02T02:39:12.647Z,0.00
2018-02-02T02:40:12.639Z,0.00
2018-02-02T02:41:12.661Z,0.00
2018-02-02T02:42:13.447Z,0.00
2018-02-02T02:43:12.639Z,0.00
2018-02-02T02:44:12.665Z,0.00
2018-02-02T02:45:12.638Z,0.00
2018-02-02T02:46:12.621Z,0.00
2018-02-02T02:47:12.638Z,0.00
2018-02-02T02:48:12.625Z,0.00
2018-02-02T02:49:12.634Z,0.00
2018-02-02T02:50:12.618Z,0.00
2018-02-02T02:51:12.623Z,0.00
2018-02-02T02:52:12.644Z,0.00
2018-02-02T02:53:12.628Z,0.00
2018-02-02T02:54:12.616Z,0.00
2018-02-02T02:55:12.611Z,0.00
2018-02-02T02:56:12.598Z,0.00
2018-02-02T02:57:12.640Z,0.00
2018-02-02T02:58:12.603Z,0.00
2018-02-02T02:59:12.597Z,0.00
2018-02-02T03:00:12.607Z,0.00
2018-02-02T03:01:12.597Z,0.00
2018-02-02T03:02:12.597Z,0.00
2018-02-02T03:03:12.592Z,0.00
2018-02-02T03:04:12.592Z,0.00
2018-02-02T03:05:12.590Z,0.00
2018-02-02T03:06:12.590Z,0.00
2018-02-02T03:07:13.444Z,0.00
2018-02-02T03:08:12.588Z,0.00
2018-02-02T03:09:12.583Z,0.00
2018-02-02T03:10:12.593Z,0.00
2018-02-02T03:11:12.577Z,0.00
2018-02-02T03:12:12.577Z,0.00
2018-02-02T03:13:12.571Z,0.00
2018-02-02T03:14:12.572Z,0.00
2018-02-02T03:15:12.568Z,0.00
2018-02-02T03:16:12.553Z,0.00
2018-02-02T03:17:12.569Z,0.00
2018-02-02T03:18:12.588Z,0.00
2018-02-02T03:19:12.556Z,0.00
2018-02-02T03:20:12.560Z,0.00
2018-02-02T03:21:12.547Z,0.00
2018-02-02T03:22:12.550Z,0.00
2018-02-02T03:23:12.552Z,0.00
2018-02-02T03:24:12.545Z,0.00
2018-02-02T03:25:12.545Z,0.00
2018-02-02T03:26:12.544Z,0.00
2018-02-02T03:27:12.539Z,0.00
2018-02-02T03:28:12.528Z,0.00
2018-02-02T03:29:12.540Z,0.00
2018-02-02T03:30:12.531Z,0.00
2018-02-02T03:31:12.527Z,0.00
2018-02-02T03:32:12.529Z,0.00
2018-02-02T03:33:12.528Z,0.00
2018-02-02T03:34:12.529Z,0.00
2018-02-02T03:35:12.529Z,0.00
2018-02-02T03:36:12.517Z,0.00
2018-02-02T03:37:12.518Z,0.00
2018-02-02T03:38:12.515Z,0.00
2018-02-02T03:39:12.513Z,0.00
2018-02-02T03:40:12.513Z,0.00
2018-02-02T03:41:12.508Z,0.00
2018-02-02T03:42:12.494Z,0.00
2018-02-02T03:43:12.501Z,0.00
2018-02-02T03:44:12.569Z,0.00
2018-02-02T03:45:12.497Z,0.00
2018-02-02T03:46:12.512Z,0.00
2018-02-02T03:47:12.490Z,0.00
2018-02-02T03:48:12.487Z,0.00
2018-02-02T03:49:12.548Z,0.00
2018-02-02T03:50:12.487Z,0.00
2018-02-02T03:51:12.484Z,0.00
2018-02-02T03:52:12.522Z,0.00
2018-02-02T03:53:12.471Z,0.00
2018-02-02T03:54:12.471Z,0.00
2018-02-02T03:55:12.470Z,0.00
2018-02-02T03:56:12.464Z,0.00
2018-02-02T03:57:12.468Z,0.00
2018-02-02T03:58:12.470Z,0.00
2018-02-02T03:59:12.473Z,0.00
2018-02-02T04:00:12.471Z,0.00
2018-02-02T04:01:12.463Z,0.00
2018-02-02T04:02:12.462Z,0.00
2018-02-02T04:03:12.458Z,0.00
2018-02-02T04:04:12.452Z,0.00
2018-02-02T04:05:12.458Z,0.00
2018-02-02T04:06:12.446Z,0.00
2018-02-02T04:07:12.465Z,0.00
2018-02-02T04:08:12.438Z,0.00
2018-02-02T04:09:12.438Z,0.00
2018-02-02T04:10:12.445Z,0.00
2018-02-02T04:11:12.444Z,0.00
2018-02-02T04:12:12.438Z,0.00
2018-02-02T04:13:12.433Z,0.00
2018-02-02T04:14:12.433Z,0.00
2018-02-02T04:15:12.435Z,0.00
2018-02-02T04:16:12.422Z,0.00
2018-02-02T04:17:12.410Z,0.00
2018-02-02T04:18:12.508Z,0.00
2018-02-02T04:19:12.418Z,0.00
2018-02-02T04:20:12.422Z,0.00
2018-02-02T04:21:12.412Z,0.00
2018-02-02T04:22:12.408Z,0.00
2018-02-02T04:23:12.409Z,0.00
2018-02-02T04:24:12.404Z,0.00
2018-02-02T04:25:12.401Z,0.00
2018-02-02T04:26:12.400Z,0.00
2018-02-02T04:27:12.404Z,0.00
2018-02-02T04:28:12.395Z,0.00
2018-02-02T04:29:12.397Z,0.00
2018-02-02T04:30:12.388Z,0.00
2018-02-02T04:31:12.390Z,0.00
2018-02-02T04:32:12.958Z,0.00
2018-02-02T04:33:12.382Z,0.00
2018-02-02T04:34:12.380Z,0.00
2018-02-02T04:35:12.377Z,0.00
2018-02-02T04:36:12.391Z,0.00
2018-02-02T04:37:12.375Z,0.00
2018-02-02T04:38:12.375Z,0.00
2018-02-02T04:39:12.458Z,0.00
2018-02-02T04:40:12.362Z,0.00
2018-02-02T04:41:12.411Z,0.00
2018-02-02T04:42:12.961Z,0.00
2018-02-02T04:43:12.434Z,0.00
2018-02-02T04:44:12.484Z,0.00
2018-02-02T04:45:12.396Z,0.00
2018-02-02T04:46:12.633Z,0.00
2018-02-02T04:47:12.573Z,0.00
2018-02-02T04:48:12.349Z,0.00
2018-02-02T04:49:12.402Z,0.00
2018-02-02T04:50:12.343Z,0.00
2018-02-02T04:51:12.397Z,0.00
2018-02-02T04:52:12.336Z,0.00
2018-02-02T04:53:12.342Z,0.00
2018-02-02T04:54:12.337Z,0.00
2018-02-02T04:55:12.753Z,0.00
2018-02-02T04:56:12.331Z,0.00
2018-02-02T04:57:14.066Z,0.00
2018-02-02T04:58:12.342Z,0.00
2018-02-02T04:59:12.322Z,0.00
2018-02-02T05:00:12.523Z,0.00
2018-02-02T05:01:12.326Z,0.00
2018-02-02T05:02:13.003Z,0.00
2018-02-02T05:03:12.310Z,0.00
2018-02-02T05:04:12.331Z,0.00
2018-02-02T05:05:12.306Z,0.00
2018-02-02T05:06:12.306Z,0.00
2018-02-02T05:07:12.310Z,0.00
2018-02-02T05:08:12.309Z,0.00
2018-02-02T05:09:12.302Z,0.00
2018-02-02T05:10:12.301Z,0.00
2018-02-02T05:11:12.300Z,0.00
2018-02-02T05:12:12.292Z,0.00
2018-02-02T05:13:12.291Z,0.00
2018-02-02T05:14:12.293Z,0.00
2018-02-02T05:15:12.285Z,0.00
2018-02-02T05:16:12.281Z,0.00
2018-02-02T05:17:12.275Z,0.00
2018-02-02T05:18:12.336Z,0.00
2018-02-02T05:19:12.281Z,0.00
2018-02-02T05:20:12.270Z,0.00
2018-02-02T05:21:12.272Z,0.00
2018-02-02T05:22:12.284Z,0.00
2018-02-02T05:23:12.274Z,0.00
2018-02-02T05:24:12.263Z,0.00
2018-02-02T05:25:12.257Z,0.00
2018-02-02T05:26:12.254Z,0.00
2018-02-02T05:27:12.257Z,0.00
2018-02-02T05:28:12.257Z,0.00
2018-02-02T05:29:12.614Z,0.00
2018-02-02T05:30:12.249Z,0.00
2018-02-02T05:31:12.257Z,0.00
2018-02-02T05:32:13.466Z,0.00
2018-02-02T05:33:12.245Z,0.00
2018-02-02T05:34:12.239Z,0.00
2018-02-02T05:35:12.265Z,0.00
2018-02-02T05:36:12.238Z,0.00
2018-02-02T05:37:12.237Z,0.00
2018-02-02T05:38:12.532Z,0.00
2018-02-02T05:39:12.231Z,0.00
2018-02-02T05:40:12.222Z,0.00
2018-02-02T05:41:12.278Z,0.00
2018-02-02T05:42:12.234Z,0.00
2018-02-02T05:43:12.225Z,0.00
2018-02-02T05:44:12.217Z,0.00
2018-02-02T05:45:12.412Z,0.00
2018-02-02T05:46:12.206Z,0.00
2018-02-02T05:47:12.212Z,0.00
2018-02-02T05:48:12.213Z,0.00
2018-02-02T05:49:12.382Z,0.00
2018-02-02T05:50:12.210Z,0.00
2018-02-02T05:51:12.211Z,0.00
2018-02-02T05:52:12.206Z,0.00
2018-02-02T05:53:12.207Z,0.00
2018-02-02T05:54:12.211Z,0.00
2018-02-02T05:55:12.834Z,0.00
2018-02-02T05:56:12.188Z,0.00
2018-02-02T05:57:12.707Z,0.00
2018-02-02T05:58:12.187Z,0.00
2018-02-02T05:59:12.198Z,0.00
2018-02-02T06:00:12.192Z,0.00
2018-02-02T06:01:12.194Z,0.00
2018-02-02T06:02:12.178Z,0.00
2018-02-02T06:03:12.367Z,0.00
2018-02-02T06:04:12.176Z,0.00
2018-02-02T06:05:12.168Z,0.00
2018-02-02T06:06:12.175Z,0.00
2018-02-02T06:07:12.168Z,0.00
2018-02-02T06:08:12.169Z,0.00
2018-02-02T06:09:12.166Z,0.00
2018-02-02T06:10:12.162Z,0.00
2018-02-02T06:11:12.609Z,0.00
2018-02-02T06:12:12.187Z,0.00
2018-02-02T06:13:12.307Z,0.00
2018-02-02T06:14:12.147Z,0.00
2018-02-02T06:15:12.154Z,0.00
2018-02-02T06:16:12.170Z,0.00
2018-02-02T06:17:12.203Z,0.00
2018-02-02T06:18:12.160Z,0.00
2018-02-02T06:19:12.133Z,0.00
2018-02-02T06:20:12.138Z,0.00
2018-02-02T06:21:12.122Z,0.00
2018-02-02T06:22:12.130Z,0.00
2018-02-02T06:23:12.140Z,0.00
2018-02-02T06:24:12.156Z,0.00
2018-02-02T06:25:12.171Z,0.00
2018-02-02T06:26:12.976Z,0.00
2018-02-02T06:27:12.107Z,0.00
2018-02-02T06:28:12.125Z,0.00
2018-02-02T06:29:12.114Z,0.00
2018-02-02T06:30:12.412Z,0.00
2018-02-02T06:31:12.105Z,0.00
2018-02-02T06:32:12.099Z,0.00
2018-02-02T06:33:12.101Z,0.00
2018-02-02T06:34:12.101Z,0.00
2018-02-02T06:35:12.088Z,0.00
2018-02-02T06:36:12.740Z,0.00
2018-02-02T06:37:12.090Z,0.00
2018-02-02T06:38:12.126Z,0.00
2018-02-02T06:39:12.082Z,0.00
2018-02-02T06:40:12.089Z,0.00
2018-02-02T06:41:12.091Z,0.00
2018-02-02T06:42:12.067Z,0.00
2018-02-02T06:43:12.087Z,0.00
2018-02-02T06:44:12.073Z,0.00
2018-02-02T06:45:12.071Z,0.00
2018-02-02T06:46:12.069Z,0.00
2018-02-02T06:47:12.069Z,0.00
2018-02-02T06:48:12.067Z,0.00
2018-02-02T06:49:12.104Z,0.00
2018-02-02T06:50:12.053Z,4.00
2018-02-02T06:51:12.974Z,4.00
2018-02-02T06:52:12.095Z,0.00
2018-02-02T06:53:12.054Z,0.00
2018-02-02T06:54:12.057Z,4.00
2018-02-02T06:55:12.055Z,4.00
2018-02-02T06:56:12.056Z,4.00
2018-02-02T06:57:12.044Z,4.00
2018-02-02T06:58:12.067Z,4.00
2018-02-02T06:59:12.149Z,4.00
2018-02-02T07:00:12.036Z,8.00
2018-02-02T07:01:12.114Z,8.00
2018-02-02T07:02:12.033Z,8.00
2018-02-02T07:03:12.035Z,8.00
2018-02-02T07:04:12.036Z,12.00
2018-02-02T07:05:12.032Z,12.00
2018-02-02T07:06:12.031Z,16.00
2018-02-02T07:07:12.031Z,20.00
2018-02-02T07:08:12.478Z,20.00
2018-02-02T07:09:12.078Z,24.00
2018-02-02T07:10:12.007Z,20.00
2018-02-02T07:11:12.058Z,24.00
2018-02-02T07:12:12.022Z,28.00
2018-02-02T07:13:12.003Z,32.00
2018-02-02T07:14:12.025Z,36.00
2018-02-02T07:15:12.007Z,36.00
2018-02-02T07:16:12.007Z,44.00
2018-02-02T07:17:12.008Z,40.00
2018-02-02T07:18:12.013Z,48.00
2018-02-02T07:19:12.001Z,44.00
2018-02-02T07:20:11.990Z,52.00
2018-02-02T07:21:11.991Z,48.00
2018-02-02T07:22:12.985Z,48.00
2018-02-02T07:23:12.191Z,56.00
2018-02-02T07:24:11.986Z,56.00
2018-02-02T07:25:12.003Z,60.00
2018-02-02T07:26:11.990Z,64.00
2018-02-02T07:27:11.989Z,60.00
2018-02-02T07:28:11.982Z,60.00
2018-02-02T07:29:11.981Z,68.00
2018-02-02T07:30:11.981Z,64.00
2018-02-02T07:31:11.970Z,72.00
2018-02-02T07:32:11.971Z,60.00
2018-02-02T07:33:11.978Z,68.00
2018-02-02T07:34:11.963Z,64.00
2018-02-02T07:35:11.956Z,64.00
2018-02-02T07:36:11.962Z,72.00
2018-02-02T07:37:11.964Z,76.00
2018-02-02T07:38:12.002Z,80.00
2018-02-02T07:39:11.960Z,88.00
2018-02-02T07:40:11.954Z,96.00
2018-02-02T07:41:11.964Z,104.00
2018-02-02T07:42:11.957Z,112.00
2018-02-02T07:43:11.979Z,124.00
2018-02-02T07:44:11.959Z,136.00
2018-02-02T07:45:11.947Z,140.00
2018-02-02T07:46:11.965Z,168.00
2018-02-02T07:47:11.967Z,168.00
2018-02-02T07:48:11.933Z,176.00
2018-02-02T07:49:11.945Z,188.00
2018-02-02T07:50:11.956Z,196.00
2018-02-02T07:51:11.957Z,204.00
2018-02-02T07:52:11.929Z,208.00
2018-02-02T07:53:12.490Z,240.00
2018-02-02T07:54:11.936Z,228.00
2018-02-02T07:55:11.971Z,228.00
2018-02-02T07:56:11.932Z,248.00
2018-02-02T07:57:11.926Z,232.00
2018-02-02T07:58:11.928Z,244.00
2018-02-02T07:59:11.916Z,280.00
2018-02-02T08:00:12.493Z,248.00
2018-02-02T08:01:11.981Z,232.00
2018-02-02T08:02:11.940Z,256.00
2018-02-02T08:03:11.919Z,248.00
2018-02-02T08:04:11.930Z,264.00
2018-02-02T08:05:11.901Z,248.00
2018-02-02T08:06:11.898Z,264.00
2018-02-02T08:07:11.904Z,276.00
2018-02-02T08:08:11.907Z,268.00
2018-02-02T08:09:11.910Z,280.00
2018-02-02T08:10:11.900Z,308.00
2018-02-02T08:11:12.180Z,368.00
2018-02-02T08:12:11.895Z,384.00
2018-02-02T08:13:11.902Z,396.00
2018-02-02T08:14:11.889Z,444.00
2018-02-02T08:15:11.913Z,504.00
2018-02-02T08:16:11.926Z,552.00
2018-02-02T08:17:11.881Z,620.00
2018-02-02T08:18:11.876Z,536.00
2018-02-02T08:19:11.874Z,520.00
2018-02-02T08:20:11.881Z,608.00
2018-02-02T08:21:11.866Z,512.00
2018-02-02T08:22:11.885Z,540.00
2018-02-02T08:23:11.877Z,476.00
2018-02-02T08:24:11.897Z,488.00
2018-02-02T08:25:11.877Z,476.00
2018-02-02T08:26:11.864Z,408.00
2018-02-02T08:27:11.868Z,448.00
2018-02-02T08:28:11.865Z,396.00
2018-02-02T08:29:11.859Z,392.00
2018-02-02T08:30:11.857Z,444.00
2018-02-02T08:31:11.863Z,428.00
2018-02-02T08:32:11.857Z,412.00
2018-02-02T08:33:11.849Z,392.00
2018-02-02T08:34:11.848Z,396.00
2018-02-02T08:35:11.912Z,416.00
2018-02-02T08:36:11.848Z,420.00
2018-02-02T08:37:11.857Z,444.00
2018-02-02T08:38:11.847Z,512.00
2018-02-02T08:39:11.843Z,480.00
2018-02-02T08:40:11.945Z,520.00
2018-02-02T08:41:11.831Z,532.00
2018-02-02T08:42:11.894Z,480.00
2018-02-02T08:43:11.858Z,476.00
2018-02-02T08:44:11.840Z,484.00
2018-02-02T08:45:11.841Z,476.00
2018-02-02T08:46:11.833Z,496.00
2018-02-02T08:47:11.824Z,552.00
2018-02-02T08:48:11.868Z,524.00
2018-02-02T08:49:11.828Z,536.00
2018-02-02T08:50:11.833Z,524.00
2018-02-02T08:51:11.834Z,532.00
2018-02-02T08:52:11.832Z,580.00
2018-02-02T08:53:11.935Z,656.00
2018-02-02T08:54:11.825Z,616.00
2018-02-02T08:55:12.494Z,740.00
2018-02-02T08:56:11.836Z,688.00
2018-02-02T08:57:11.877Z,632.00
2018-02-02T08:58:11.989Z,692.00
2018-02-02T08:59:11.816Z,664.00
2018-02-02T09:00:11.816Z,712.00
2018-02-02T09:01:11.849Z,728.00
2018-02-02T09:02:11.803Z,672.00
2018-02-02T09:03:11.875Z,668.00
2018-02-02T09:04:11.845Z,728.00
2018-02-02T09:05:11.797Z,696.00
2018-02-02T09:06:11.821Z,708.00
2018-02-02T09:07:11.806Z,808.00
2018-02-02T09:08:11.795Z,784.00
2018-02-02T09:09:11.816Z,872.00
2018-02-02T09:10:11.797Z,1032.00
2018-02-02T09:11:11.802Z,1088.00
2018-02-02T09:12:11.809Z,1132.00
2018-02-02T09:13:11.787Z,1104.00
2018-02-02T09:14:11.878Z,1308.00
2018-02-02T09:15:11.784Z,1768.00
2018-02-02T09:16:11.764Z,1828.00
2018-02-02T09:17:11.790Z,2204.00
2018-02-02T09:18:12.498Z,2108.00
2018-02-02T09:19:11.888Z,1928.00
2018-02-02T09:20:11.784Z,1648.00
2018-02-02T09:21:11.778Z,1444.00
2018-02-02T09:22:12.567Z,1580.00
2018-02-02T09:23:11.770Z,1708.00
2018-02-02T09:24:11.772Z,1836.00
2018-02-02T09:25:11.797Z,1868.00
2018-02-02T09:26:12.049Z,1952.00
2018-02-02T09:27:12.506Z,1900.00
2018-02-02T09:28:11.765Z,1856.00
2018-02-02T09:29:11.786Z,1844.00
2018-02-02T09:30:11.797Z,1720.00
2018-02-02T09:31:11.752Z,1716.00
2018-02-02T09:32:11.751Z,1936.00
2018-02-02T09:33:11.756Z,1868.00
2018-02-02T09:34:11.751Z,1600.00
2018-02-02T09:35:11.752Z,1536.00
2018-02-02T09:36:11.776Z,1460.00
2018-02-02T09:37:11.749Z,1260.00
2018-02-02T09:38:11.746Z,1520.00
2018-02-02T09:39:11.743Z,1472.00
2018-02-02T09:40:11.910Z,1540.00
2018-02-02T09:41:11.741Z,1704.00
2018-02-02T09:42:11.778Z,1736.00
2018-02-02T09:43:12.502Z,1840.00
2018-02-02T09:44:11.745Z,1748.00
2018-02-02T09:45:11.734Z,1852.00
2018-02-02T09:46:11.793Z,2052.00
2018-02-02T09:47:11.750Z,2432.00
2018-02-02T09:48:11.819Z,2148.00
2018-02-02T09:49:11.753Z,2488.00
2018-02-02T09:50:11.719Z,2080.00
2018-02-02T09:51:11.969Z,1812.00
2018-02-02T09:52:11.747Z,1720.00
2018-02-02T09:53:11.780Z,1848.00
2018-02-02T09:54:11.769Z,1960.00
2018-02-02T09:55:11.752Z,2204.00
2018-02-02T09:56:11.740Z,2456.00
2018-02-02T09:57:11.724Z,2368.00
2018-02-02T09:58:11.722Z,2228.00
2018-02-02T09:59:12.739Z,1876.00
2018-02-02T10:00:11.734Z,1612.00
2018-02-02T10:01:11.773Z,1572.00
2018-02-02T10:02:11.742Z,1668.00
2018-02-02T10:03:11.715Z,1792.00
2018-02-02T10:04:11.712Z,1788.00
2018-02-02T10:05:11.716Z,2064.00
2018-02-02T10:06:11.770Z,1832.00
2018-02-02T10:07:12.045Z,1672.00
2018-02-02T10:08:11.719Z,1460.00
2018-02-02T10:09:11.723Z,1476.00
2018-02-02T10:10:11.715Z,1380.00
2018-02-02T10:11:11.722Z,1592.00
2018-02-02T10:12:12.513Z,1724.00
2018-02-02T10:13:11.715Z,1672.00
2018-02-02T10:14:11.697Z,1852.00
2018-02-02T10:15:11.707Z,1916.00
2018-02-02T10:16:11.972Z,2096.00
2018-02-02T10:17:12.509Z,2524.00
2018-02-02T10:18:11.714Z,2292.00
2018-02-02T10:19:11.743Z,2640.00
2018-02-02T10:20:11.733Z,3048.00
2018-02-02T10:21:11.705Z,3064.00
2018-02-02T10:22:11.711Z,2796.00
2018-02-02T10:23:11.695Z,2696.00
2018-02-02T10:24:11.716Z,3344.00
2018-02-02T10:25:11.701Z,3236.00
2018-02-02T10:26:11.698Z,3220.00
2018-02-02T10:27:11.707Z,3268.00
2018-02-02T10:28:11.702Z,3004.00
2018-02-02T10:29:11.706Z,3692.00
2018-02-02T10:30:11.814Z,2756.00
2018-02-02T10:31:11.712Z,2452.00
2018-02-02T10:32:11.747Z,2488.00
2018-02-02T10:33:11.719Z,2072.00
2018-02-02T10:34:11.694Z,2084.00
2018-02-02T10:35:11.688Z,2196.00
2018-02-02T10:36:11.685Z,2220.00
2018-02-02T10:37:11.697Z,2020.00
2018-02-02T10:38:11.684Z,2508.00
2018-02-02T10:39:11.691Z,2032.00
2018-02-02T10:40:11.694Z,2344.00
2018-02-02T10:41:11.684Z,2052.00
2018-02-02T10:42:11.742Z,1952.00
2018-02-02T10:43:11.817Z,1596.00
2018-02-02T10:44:11.937Z,1560.00
2018-02-02T10:45:11.677Z,1600.00
2018-02-02T10:46:11.797Z,1628.00
2018-02-02T10:47:11.677Z,2232.00
2018-02-02T10:48:11.681Z,2496.00
2018-02-02T10:49:11.777Z,2356.00
2018-02-02T10:50:11.691Z,2204.00
2018-02-02T10:51:12.519Z,1972.00
2018-02-02T10:52:11.680Z,2084.00
2018-02-02T10:53:11.685Z,2228.00
2018-02-02T10:54:11.674Z,2244.00
2018-02-02T10:55:11.660Z,2964.00
2018-02-02T10:56:11.682Z,3792.00
2018-02-02T10:57:12.067Z,3844.00
2018-02-02T10:58:11.675Z,3904.00
2018-02-02T10:59:11.660Z,3896.00
2018-02-02T11:00:11.684Z,3640.00
2018-02-02T11:01:11.785Z,2704.00
2018-02-02T11:02:11.661Z,2268.00
2018-02-02T11:03:11.695Z,1936.00
2018-02-02T11:04:11.747Z,2044.00
2018-02-02T11:05:11.659Z,2568.00
2018-02-02T11:06:11.662Z,2572.00
2018-02-02T11:07:11.686Z,2732.00
2018-02-02T11:08:11.666Z,2976.00
2018-02-02T11:09:11.668Z,3176.00
2018-02-02T11:10:11.665Z,4108.00
2018-02-02T11:11:11.668Z,4184.00
2018-02-02T11:12:11.673Z,4168.00
2018-02-02T11:13:11.665Z,4296.00
2018-02-02T11:14:12.602Z,3544.00
2018-02-02T11:15:11.669Z,3700.00
2018-02-02T11:16:11.693Z,3444.00
2018-02-02T11:17:12.524Z,3300.00
2018-02-02T11:18:11.689Z,3104.00
2018-02-02T11:19:12.054Z,2928.00
2018-02-02T11:20:11.735Z,2756.00
2018-02-02T11:21:11.675Z,2564.00
2018-02-02T11:22:11.651Z,2480.00
2018-02-02T11:23:12.530Z,2336.00
2018-02-02T11:24:11.655Z,2364.00
2018-02-02T11:25:11.662Z,2568.00
2018-02-02T11:26:11.703Z,2432.00
2018-02-02T11:27:11.659Z,2252.00
2018-02-02T11:28:11.729Z,2204.00
2018-02-02T11:29:11.652Z,2252.00
2018-02-02T11:30:11.651Z,2336.00
2018-02-02T11:31:11.676Z,2500.00
2018-02-02T11:32:11.825Z,2244.00
2018-02-02T11:33:11.683Z,2192.00
2018-02-02T11:34:11.650Z,2648.00
2018-02-02T11:35:11.649Z,2560.00
2018-02-02T11:36:11.657Z,2400.00
2018-02-02T11:37:11.689Z,2392.00
2018-02-02T11:38:11.697Z,2632.00
2018-02-02T11:39:11.650Z,2652.00
2018-02-02T11:40:11.644Z,2616.00
2018-02-02T11:41:11.662Z,2892.00
2018-02-02T11:42:11.652Z,2848.00
2018-02-02T11:43:11.741Z,2264.00
2018-02-02T11:44:11.644Z,2076.00
2018-02-02T11:45:11.680Z,1824.00
2018-02-02T11:46:11.645Z,1612.00
2018-02-02T11:47:11.677Z,1472.00
2018-02-02T11:48:11.733Z,1272.00
2018-02-02T11:49:11.760Z,1304.00
2018-02-02T11:50:11.961Z,1468.00
2018-02-02T11:51:11.679Z,1436.00
2018-02-02T11:52:11.678Z,1564.00
2018-02-02T11:53:11.703Z,1716.00
2018-02-02T11:54:11.797Z,1740.00
2018-02-02T11:55:11.645Z,1752.00
2018-02-02T11:56:11.673Z,1576.00
2018-02-02T11:57:11.761Z,1464.00
2018-02-02T11:58:11.641Z,1432.00
2018-02-02T11:59:11.651Z,1436.00
2018-02-02T12:00:11.640Z,1320.00
2018-02-02T12:01:11.650Z,1600.00
2018-02-02T12:02:11.650Z,1828.00
2018-02-02T12:03:11.661Z,2124.00
2018-02-02T12:04:11.651Z,2644.00
2018-02-02T12:05:11.639Z,2436.00
2018-02-02T12:06:12.236Z,2404.00
2018-02-02T12:07:12.533Z,2420.00
2018-02-02T12:08:11.639Z,2560.00
2018-02-02T12:09:11.659Z,2084.00
2018-02-02T12:10:11.639Z,2100.00
2018-02-02T12:11:11.638Z,1908.00
2018-02-02T12:12:12.536Z,1752.00
2018-02-02T12:13:11.631Z,1788.00
2018-02-02T12:14:11.627Z,2264.00
2018-02-02T12:15:11.702Z,2628.00
2018-02-02T12:16:11.653Z,3360.00
2018-02-02T12:17:11.656Z,4204.00
2018-02-02T12:18:11.629Z,4700.00
2018-02-02T12:19:11.633Z,5512.00
2018-02-02T12:20:11.636Z,5904.00
2018-02-02T12:21:11.643Z,5640.00
2018-02-02T12:22:11.750Z,5236.00
2018-02-02T12:23:11.644Z,5052.00
2018-02-02T12:24:11.647Z,5100.00
2018-02-02T12:25:11.630Z,5476.00
2018-02-02T12:26:11.649Z,6404.00
2018-02-02T12:27:11.637Z,7472.00
2018-02-02T12:28:12.539Z,7820.00
2018-02-02T12:29:11.626Z,7624.00
2018-02-02T12:30:11.941Z,7396.00
2018-02-02T12:31:11.632Z,7136.00
2018-02-02T12:32:11.634Z,7260.00
2018-02-02T12:33:11.694Z,7024.00
2018-02-02T12:34:11.659Z,6212.00
2018-02-02T12:35:11.634Z,5560.00
2018-02-02T12:36:11.633Z,5192.00
2018-02-02T12:37:11.646Z,5376.00
2018-02-02T12:38:12.544Z,6268.00
2018-02-02T12:39:11.696Z,6528.00
2018-02-02T12:40:11.630Z,6492.00
2018-02-02T12:41:11.660Z,6020.00
2018-02-02T12:42:11.660Z,5916.00
2018-02-02T12:43:11.638Z,6948.00
2018-02-02T12:44:11.657Z,7700.00
2018-02-02T12:45:11.636Z,7084.00
2018-02-02T12:46:11.637Z,6980.00
2018-02-02T12:47:11.645Z,7104.00
2018-02-02T12:48:11.652Z,6756.00
2018-02-02T12:49:11.651Z,6920.00